sensor_id;sensor_type;location;lat;lon;timestamp;temperature;humidity
20744;DHT22;56303;52.160;-0.428;2023-02-15T00:01:57;3.10;99.90
20744;DHT22;56303;52.160;-0.428;2023-02-15T00:04:26;3.00;99.90
20744;DHT22;56303;52.160;-0.428;2023-02-15T00:07:18;3.00;99.90
20744;DHT22;56303;52.160;-0.428;2023-02-15T00:09:46;3.00;99.90
20744;DHT22;56303;52.160;-0.428;2023-02-15T00:12:13;3.60;99.90
20744;DHT22;56303;52.160;-0.428;2023-02-15T00:14:40;2.90;99.90
20744;DHT22;56303;52.160;-0.428;2023-02-15T00:17:07;2.60;99.90
20744;DHT22;56303;52.160;-0.428;2023-02-15T00:19:36;2.70;99.90
20744;DHT22;56303;52.160;-0.428;2023-02-15T00:22:03;2.60;99.90
20744;DHT22;56303;52.160;-0.428;2023-02-15T00:24:30;2.60;99.90
20744;DHT22;56303;52.160;-0.428;2023-02-15T00:26:57;2.70;99.90
20744;DHT22;56303;52.160;-0.428;2023-02-15T00:29:24;2.70;99.90
20744;DHT22;56303;52.160;-0.428;2023-02-15T00:31:51;2.90;99.90
20744;DHT22;56303;52.160;-0.428;2023-02-15T00:34:24;3.00;99.90
20744;DHT22;56303;52.160;-0.428;2023-02-15T00:36:52;2.90;99.90
20744;DHT22;56303;52.160;-0.428;2023-02-15T00:39:19;2.70;99.90
20744;DHT22;56303;52.160;-0.428;2023-02-15T00:41:47;2.70;99.90
20744;DHT22;56303;52.160;-0.428;2023-02-15T00:44:14;2.70;99.90
20744;DHT22;56303;52.160;-0.428;2023-02-15T00:46:41;2.70;99.90
20744;DHT22;56303;52.160;-0.428;2023-02-15T00:49:08;2.80;99.90
20744;DHT22;56303;52.160;-0.428;2023-02-15T00:51:35;2.70;99.90
20744;DHT22;56303;52.160;-0.428;2023-02-15T00:54:02;3.50;99.90
20744;DHT22;56303;52.160;-0.428;2023-02-15T00:56:29;2.80;99.90
20744;DHT22;56303;52.160;-0.428;2023-02-15T00:58:56;2.90;99.90
20744;DHT22;56303;52.160;-0.428;2023-02-15T01:01:23;2.90;99.90
20744;DHT22;56303;52.160;-0.428;2023-02-15T01:03:50;3.00;99.90
20744;DHT22;56303;52.160;-0.428;2023-02-15T01:06:17;3.30;99.90
20744;DHT22;56303;52.160;-0.428;2023-02-15T01:08:45;3.00;99.90
20744;DHT22;56303;52.160;-0.428;2023-02-15T01:11:15;2.90;99.90
20744;DHT22;56303;52.160;-0.428;2023-02-15T01:13:41;3.90;99.90
20744;DHT22;56303;52.160;-0.428;2023-02-15T01:16:08;2.80;99.90
20744;DHT22;56303;52.160;-0.428;2023-02-15T01:18:36;3.60;99.90
20744;DHT22;56303;52.160;-0.428;2023-02-15T01:21:28;2.50;99.90
20744;DHT22;56303;52.160;-0.428;2023-02-15T01:23:55;2.60;99.90
20744;DHT22;56303;52.160;-0.428;2023-02-15T01:26:22;2.30;99.90
20744;DHT22;56303;52.160;-0.428;2023-02-15T01:28:49;2.40;99.90
20744;DHT22;56303;52.160;-0.428;2023-02-15T01:31:19;2.40;99.90
20744;DHT22;56303;52.160;-0.428;2023-02-15T01:33:47;2.30;99.90
20744;DHT22;56303;52.160;-0.428;2023-02-15T01:36:14;2.90;99.90
20744;DHT22;56303;52.160;-0.428;2023-02-15T01:38:41;2.20;99.90
20744;DHT22;56303;52.160;-0.428;2023-02-15T01:41:08;2.20;99.90
20744;DHT22;56303;52.160;-0.428;2023-02-15T01:43:54;2.20;99.90
20744;DHT22;56303;52.160;-0.428;2023-02-15T01:46:31;2.20;99.90
20744;DHT22;56303;52.160;-0.428;2023-02-15T01:49:04;2.30;99.90
20744;DHT22;56303;52.160;-0.428;2023-02-15T01:51:34;2.20;99.90
20744;DHT22;56303;52.160;-0.428;2023-02-15T01:54:16;2.20;99.90
20744;DHT22;56303;52.160;-0.428;2023-02-15T01:56:44;2.10;99.90
20744;DHT22;56303;52.160;-0.428;2023-02-15T01:59:16;2.20;99.90
20744;DHT22;56303;52.160;-0.428;2023-02-15T02:01:46;2.10;99.90
20744;DHT22;56303;52.160;-0.428;2023-02-15T02:06:48;2.20;99.90
20744;DHT22;56303;52.160;-0.428;2023-02-15T02:09:15;2.10;99.90
20744;DHT22;56303;52.160;-0.428;2023-02-15T02:11:45;2.30;99.90
20744;DHT22;56303;52.160;-0.428;2023-02-15T02:14:12;2.50;99.90
20744;DHT22;56303;52.160;-0.428;2023-02-15T02:16:47;2.60;99.90
20744;DHT22;56303;52.160;-0.428;2023-02-15T02:27:47;1.80;99.90
20744;DHT22;56303;52.160;-0.428;2023-02-15T02:30:44;1.80;99.90
20744;DHT22;56303;52.160;-0.428;2023-02-15T02:44:19;1.50;99.90
20744;DHT22;56303;52.160;-0.428;2023-02-15T02:49:36;2.10;99.90
20744;DHT22;56303;52.160;-0.428;2023-02-15T02:52:52;1.80;99.90
20744;DHT22;56303;52.160;-0.428;2023-02-15T02:54:53;2.00;99.90
20744;DHT22;56303;52.160;-0.428;2023-02-15T02:57:23;1.90;99.90
20744;DHT22;56303;52.160;-0.428;2023-02-15T02:59:51;2.20;99.90
20744;DHT22;56303;52.160;-0.428;2023-02-15T03:02:25;1.70;99.90
20744;DHT22;56303;52.160;-0.428;2023-02-15T03:05:00;2.60;99.90
20744;DHT22;56303;52.160;-0.428;2023-02-15T03:07:31;2.10;99.90
20744;DHT22;56303;52.160;-0.428;2023-02-15T03:10:00;1.80;99.90
20744;DHT22;56303;52.160;-0.428;2023-02-15T03:12:38;1.80;99.90
20744;DHT22;56303;52.160;-0.428;2023-02-15T03:15:11;1.90;99.90
20744;DHT22;56303;52.160;-0.428;2023-02-15T03:17:45;2.20;99.90
20744;DHT22;56303;52.160;-0.428;2023-02-15T03:20:14;2.40;99.90
20744;DHT22;56303;52.160;-0.428;2023-02-15T03:22:46;2.30;99.90
20744;DHT22;56303;52.160;-0.428;2023-02-15T03:25:24;2.40;99.90
20744;DHT22;56303;52.160;-0.428;2023-02-15T03:28:13;2.20;99.90
20744;DHT22;56303;52.160;-0.428;2023-02-15T03:30:44;2.10;99.90
20744;DHT22;56303;52.160;-0.428;2023-02-15T03:33:13;1.90;99.90
20744;DHT22;56303;52.160;-0.428;2023-02-15T03:35:50;1.90;99.90
20744;DHT22;56303;52.160;-0.428;2023-02-15T03:38:29;3.30;99.90
20744;DHT22;56303;52.160;-0.428;2023-02-15T03:41:01;1.80;99.90
20744;DHT22;56303;52.160;-0.428;2023-02-15T03:46:30;1.80;99.90
20744;DHT22;56303;52.160;-0.428;2023-02-15T03:49:18;1.90;99.90
20744;DHT22;56303;52.160;-0.428;2023-02-15T03:51:48;1.90;99.90
20744;DHT22;56303;52.160;-0.428;2023-02-15T03:54:28;2.10;99.90
20744;DHT22;56303;52.160;-0.428;2023-02-15T03:57:14;2.00;99.90
20744;DHT22;56303;52.160;-0.428;2023-02-15T04:00:04;2.10;99.90
20744;DHT22;56303;52.160;-0.428;2023-02-15T04:05:23;2.00;99.90
20744;DHT22;56303;52.160;-0.428;2023-02-15T04:07:50;1.90;99.90
20744;DHT22;56303;52.160;-0.428;2023-02-15T04:10:17;2.00;99.90
20744;DHT22;56303;52.160;-0.428;2023-02-15T04:13:02;2.10;99.90
20744;DHT22;56303;52.160;-0.428;2023-02-15T04:15:29;2.10;99.90
20744;DHT22;56303;52.160;-0.428;2023-02-15T04:18:15;2.50;99.90
20744;DHT22;56303;52.160;-0.428;2023-02-15T04:20:45;2.20;99.90
20744;DHT22;56303;52.160;-0.428;2023-02-15T04:23:31;2.20;99.90
20744;DHT22;56303;52.160;-0.428;2023-02-15T04:26:16;2.10;99.90
20744;DHT22;56303;52.160;-0.428;2023-02-15T04:28:43;2.10;99.90
20744;DHT22;56303;52.160;-0.428;2023-02-15T04:31:10;2.30;99.90
20744;DHT22;56303;52.160;-0.428;2023-02-15T04:33:37;1.90;99.90
20744;DHT22;56303;52.160;-0.428;2023-02-15T04:36:05;1.90;99.90
20744;DHT22;56303;52.160;-0.428;2023-02-15T04:38:32;1.90;99.90
20744;DHT22;56303;52.160;-0.428;2023-02-15T04:40:59;2.00;99.90
20744;DHT22;56303;52.160;-0.428;2023-02-15T04:43:25;1.90;99.90
20744;DHT22;56303;52.160;-0.428;2023-02-15T04:45:52;2.00;99.90
20744;DHT22;56303;52.160;-0.428;2023-02-15T04:48:19;1.80;99.90
20744;DHT22;56303;52.160;-0.428;2023-02-15T04:50:46;1.90;99.90
20744;DHT22;56303;52.160;-0.428;2023-02-15T04:53:13;2.10;99.90
20744;DHT22;56303;52.160;-0.428;2023-02-15T04:55:40;2.00;99.90
20744;DHT22;56303;52.160;-0.428;2023-02-15T04:58:07;2.20;99.90
20744;DHT22;56303;52.160;-0.428;2023-02-15T05:00:34;0.90;99.90
20744;DHT22;56303;52.160;-0.428;2023-02-15T05:03:00;2.30;99.90
20744;DHT22;56303;52.160;-0.428;2023-02-15T05:05:27;3.30;99.90
20744;DHT22;56303;52.160;-0.428;2023-02-15T05:07:54;2.60;99.90
20744;DHT22;56303;52.160;-0.428;2023-02-15T05:10:21;2.00;99.90
20744;DHT22;56303;52.160;-0.428;2023-02-15T05:12:48;2.00;99.90
20744;DHT22;56303;52.160;-0.428;2023-02-15T05:15:14;1.90;99.90
20744;DHT22;56303;52.160;-0.428;2023-02-15T05:17:41;1.90;99.90
20744;DHT22;56303;52.160;-0.428;2023-02-15T05:20:08;2.50;99.90
20744;DHT22;56303;52.160;-0.428;2023-02-15T05:22:35;1.60;99.90
20744;DHT22;56303;52.160;-0.428;2023-02-15T05:25:02;1.80;99.90
20744;DHT22;56303;52.160;-0.428;2023-02-15T05:27:48;1.60;99.90
20744;DHT22;56303;52.160;-0.428;2023-02-15T05:30:33;1.90;99.90
20744;DHT22;56303;52.160;-0.428;2023-02-15T05:33:00;2.20;99.90
20744;DHT22;56303;52.160;-0.428;2023-02-15T05:35:27;1.90;99.90
20744;DHT22;56303;52.160;-0.428;2023-02-15T05:37:54;1.90;99.90
20744;DHT22;56303;52.160;-0.428;2023-02-15T05:40:20;1.80;99.90
20744;DHT22;56303;52.160;-0.428;2023-02-15T05:42:47;1.70;99.90
20744;DHT22;56303;52.160;-0.428;2023-02-15T05:45:14;1.70;99.90
20744;DHT22;56303;52.160;-0.428;2023-02-15T05:47:42;1.70;99.90
20744;DHT22;56303;52.160;-0.428;2023-02-15T05:50:09;1.70;99.90
20744;DHT22;56303;52.160;-0.428;2023-02-15T05:52:37;1.70;99.90
20744;DHT22;56303;52.160;-0.428;2023-02-15T05:55:05;1.70;99.90
20744;DHT22;56303;52.160;-0.428;2023-02-15T05:57:32;1.70;99.90
20744;DHT22;56303;52.160;-0.428;2023-02-15T05:59:59;1.80;99.90
20744;DHT22;56303;52.160;-0.428;2023-02-15T06:02:26;2.10;99.90
20744;DHT22;56303;52.160;-0.428;2023-02-15T06:04:52;1.90;99.90
20744;DHT22;56303;52.160;-0.428;2023-02-15T06:07:19;2.00;99.90
20744;DHT22;56303;52.160;-0.428;2023-02-15T06:09:46;2.50;99.90
20744;DHT22;56303;52.160;-0.428;2023-02-15T06:12:13;1.80;99.90
20744;DHT22;56303;52.160;-0.428;2023-02-15T06:14:40;1.70;99.90
20744;DHT22;56303;52.160;-0.428;2023-02-15T06:17:07;1.60;99.90
20744;DHT22;56303;52.160;-0.428;2023-02-15T06:19:34;1.50;99.90
20744;DHT22;56303;52.160;-0.428;2023-02-15T06:22:00;1.50;99.90
20744;DHT22;56303;52.160;-0.428;2023-02-15T06:24:27;2.20;99.90
20744;DHT22;56303;52.160;-0.428;2023-02-15T06:26:54;1.60;99.90
20744;DHT22;56303;52.160;-0.428;2023-02-15T06:29:21;1.60;99.90
20744;DHT22;56303;52.160;-0.428;2023-02-15T06:31:48;1.50;99.90
20744;DHT22;56303;52.160;-0.428;2023-02-15T06:34:15;1.70;99.90
20744;DHT22;56303;52.160;-0.428;2023-02-15T06:36:42;1.80;99.90
20744;DHT22;56303;52.160;-0.428;2023-02-15T06:39:09;1.90;99.90
20744;DHT22;56303;52.160;-0.428;2023-02-15T06:41:36;1.80;99.90
20744;DHT22;56303;52.160;-0.428;2023-02-15T06:44:03;2.20;99.90
20744;DHT22;56303;52.160;-0.428;2023-02-15T06:46:30;1.90;99.90
20744;DHT22;56303;52.160;-0.428;2023-02-15T06:48:57;2.00;99.90
20744;DHT22;56303;52.160;-0.428;2023-02-15T06:51:24;2.00;99.90
20744;DHT22;56303;52.160;-0.428;2023-02-15T06:53:51;2.00;99.90
20744;DHT22;56303;52.160;-0.428;2023-02-15T06:56:17;2.00;99.90
20744;DHT22;56303;52.160;-0.428;2023-02-15T06:58:44;2.00;99.90
20744;DHT22;56303;52.160;-0.428;2023-02-15T07:01:16;2.60;99.90
20744;DHT22;56303;52.160;-0.428;2023-02-15T07:03:42;2.10;99.90
20744;DHT22;56303;52.160;-0.428;2023-02-15T07:06:09;1.90;99.90
20744;DHT22;56303;52.160;-0.428;2023-02-15T07:08:38;1.90;99.90
20744;DHT22;56303;52.160;-0.428;2023-02-15T07:11:06;2.00;99.90
20744;DHT22;56303;52.160;-0.428;2023-02-15T07:13:51;1.90;99.90
20744;DHT22;56303;52.160;-0.428;2023-02-15T07:16:21;2.10;99.90
20744;DHT22;56303;52.160;-0.428;2023-02-15T07:18:48;1.80;99.90
20744;DHT22;56303;52.160;-0.428;2023-02-15T07:21:14;2.10;99.90
20744;DHT22;56303;52.160;-0.428;2023-02-15T07:23:41;2.20;99.90
20744;DHT22;56303;52.160;-0.428;2023-02-15T07:26:08;2.00;99.90
20744;DHT22;56303;52.160;-0.428;2023-02-15T07:28:35;2.90;99.90
20744;DHT22;56303;52.160;-0.428;2023-02-15T07:31:03;2.00;99.90
20744;DHT22;56303;52.160;-0.428;2023-02-15T07:33:31;2.60;99.90
20744;DHT22;56303;52.160;-0.428;2023-02-15T07:36:01;2.70;99.90
20744;DHT22;56303;52.160;-0.428;2023-02-15T07:38:40;2.40;99.90
20744;DHT22;56303;52.160;-0.428;2023-02-15T07:41:09;2.40;99.90
20744;DHT22;56303;52.160;-0.428;2023-02-15T07:43:39;2.50;99.90
20744;DHT22;56303;52.160;-0.428;2023-02-15T07:46:12;2.40;99.90
20744;DHT22;56303;52.160;-0.428;2023-02-15T07:48:39;2.50;99.90
20744;DHT22;56303;52.160;-0.428;2023-02-15T07:51:10;2.70;99.90
20744;DHT22;56303;52.160;-0.428;2023-02-15T07:53:38;2.10;99.90
20744;DHT22;56303;52.160;-0.428;2023-02-15T07:56:08;3.30;99.90
20744;DHT22;56303;52.160;-0.428;2023-02-15T07:58:37;2.20;99.90
20744;DHT22;56303;52.160;-0.428;2023-02-15T08:01:25;2.20;99.90
20744;DHT22;56303;52.160;-0.428;2023-02-15T08:03:53;2.40;99.90
20744;DHT22;56303;52.160;-0.428;2023-02-15T08:06:22;2.20;99.90
20744;DHT22;56303;52.160;-0.428;2023-02-15T08:08:49;2.40;99.90
20744;DHT22;56303;52.160;-0.428;2023-02-15T08:11:22;2.70;99.90
20744;DHT22;56303;52.160;-0.428;2023-02-15T08:13:56;2.80;99.90
20744;DHT22;56303;52.160;-0.428;2023-02-15T08:19:11;2.70;99.90
20744;DHT22;56303;52.160;-0.428;2023-02-15T08:21:40;2.80;99.90
20744;DHT22;56303;52.160;-0.428;2023-02-15T08:24:08;3.00;99.90
20744;DHT22;56303;52.160;-0.428;2023-02-15T08:26:36;3.10;99.90
20744;DHT22;56303;52.160;-0.428;2023-02-15T08:29:05;3.30;99.90
20744;DHT22;56303;52.160;-0.428;2023-02-15T08:31:34;3.40;99.90
20744;DHT22;56303;52.160;-0.428;2023-02-15T08:34:02;3.50;99.90
20744;DHT22;56303;52.160;-0.428;2023-02-15T08:36:30;3.50;99.90
20744;DHT22;56303;52.160;-0.428;2023-02-15T08:38:59;3.60;99.90
20744;DHT22;56303;52.160;-0.428;2023-02-15T08:41:30;4.00;99.90
20744;DHT22;56303;52.160;-0.428;2023-02-15T08:44:00;3.90;99.90
20744;DHT22;56303;52.160;-0.428;2023-02-15T08:46:30;4.10;99.90
20744;DHT22;56303;52.160;-0.428;2023-02-15T08:48:57;4.50;99.90
20744;DHT22;56303;52.160;-0.428;2023-02-15T08:51:32;4.90;99.90
20744;DHT22;56303;52.160;-0.428;2023-02-15T08:54:04;5.10;99.90
20744;DHT22;56303;52.160;-0.428;2023-02-15T08:56:37;5.10;99.90
20744;DHT22;56303;52.160;-0.428;2023-02-15T08:59:04;5.20;99.90
20744;DHT22;56303;52.160;-0.428;2023-02-15T09:01:33;5.30;99.90
20744;DHT22;56303;52.160;-0.428;2023-02-15T09:04:06;5.50;99.90
20744;DHT22;56303;52.160;-0.428;2023-02-15T09:06:51;5.60;99.90
20744;DHT22;56303;52.160;-0.428;2023-02-15T09:09:24;5.70;99.90
20744;DHT22;56303;52.160;-0.428;2023-02-15T09:11:55;5.70;99.90
20744;DHT22;56303;52.160;-0.428;2023-02-15T09:14:25;6.00;99.90
20744;DHT22;56303;52.160;-0.428;2023-02-15T09:16:53;6.20;99.90
20744;DHT22;56303;52.160;-0.428;2023-02-15T09:19:22;6.40;99.90
20744;DHT22;56303;52.160;-0.428;2023-02-15T09:21:49;6.60;99.90
20744;DHT22;56303;52.160;-0.428;2023-02-15T09:24:17;6.70;99.90
20744;DHT22;56303;52.160;-0.428;2023-02-15T09:26:46;6.90;99.90
20744;DHT22;56303;52.160;-0.428;2023-02-15T09:29:15;7.10;99.90
20744;DHT22;56303;52.160;-0.428;2023-02-15T09:31:45;7.40;99.90
20744;DHT22;56303;52.160;-0.428;2023-02-15T09:34:15;7.40;99.90
20744;DHT22;56303;52.160;-0.428;2023-02-15T09:36:45;7.40;99.90
20744;DHT22;56303;52.160;-0.428;2023-02-15T09:39:16;7.60;99.90
20744;DHT22;56303;52.160;-0.428;2023-02-15T09:53:19;8.10;99.90
20744;DHT22;56303;52.160;-0.428;2023-02-15T10:03:42;8.70;99.90
20744;DHT22;56303;52.160;-0.428;2023-02-15T10:08:54;10.10;99.90
20744;DHT22;56303;52.160;-0.428;2023-02-15T10:26:30;9.70;99.90
20744;DHT22;56303;52.160;-0.428;2023-02-15T10:31:24;10.00;99.90
20744;DHT22;56303;52.160;-0.428;2023-02-15T10:34:07;10.20;99.90
20744;DHT22;56303;52.160;-0.428;2023-02-15T10:37:01;10.20;99.90
20744;DHT22;56303;52.160;-0.428;2023-02-15T10:42:45;10.50;99.90
20744;DHT22;56303;52.160;-0.428;2023-02-15T10:45:20;10.80;99.90
20744;DHT22;56303;52.160;-0.428;2023-02-15T10:51:00;10.80;99.90
20744;DHT22;56303;52.160;-0.428;2023-02-15T10:56:29;10.90;99.90
20744;DHT22;56303;52.160;-0.428;2023-02-15T11:01:49;11.40;99.90
20744;DHT22;56303;52.160;-0.428;2023-02-15T11:07:33;11.20;99.90
20744;DHT22;56303;52.160;-0.428;2023-02-15T11:10:21;11.40;99.90
20744;DHT22;56303;52.160;-0.428;2023-02-15T11:12:50;11.80;99.90
20744;DHT22;56303;52.160;-0.428;2023-02-15T11:15:33;11.90;99.90
20744;DHT22;56303;52.160;-0.428;2023-02-15T11:23:39;12.40;99.90
20744;DHT22;56303;52.160;-0.428;2023-02-15T11:26:14;12.10;99.90
20744;DHT22;56303;52.160;-0.428;2023-02-15T11:28:52;12.30;99.90
20744;DHT22;56303;52.160;-0.428;2023-02-15T11:31:24;12.40;99.90
20744;DHT22;56303;52.160;-0.428;2023-02-15T11:34:00;12.70;99.90
20744;DHT22;56303;52.160;-0.428;2023-02-15T11:36:34;12.90;99.90
20744;DHT22;56303;52.160;-0.428;2023-02-15T11:39:09;12.70;99.90
20744;DHT22;56303;52.160;-0.428;2023-02-15T11:41:53;12.70;99.90
20744;DHT22;56303;52.160;-0.428;2023-02-15T11:44:32;12.80;99.90
20744;DHT22;56303;52.160;-0.428;2023-02-15T11:47:01;12.60;99.90
20744;DHT22;56303;52.160;-0.428;2023-02-15T11:49:34;12.80;99.90
20744;DHT22;56303;52.160;-0.428;2023-02-15T11:52:07;13.00;99.90
20744;DHT22;56303;52.160;-0.428;2023-02-15T11:54:36;13.10;99.90
20744;DHT22;56303;52.160;-0.428;2023-02-15T12:00:00;13.00;99.90
20744;DHT22;56303;52.160;-0.428;2023-02-15T12:02:31;13.50;99.90
20744;DHT22;56303;52.160;-0.428;2023-02-15T12:05:05;13.50;99.90
20744;DHT22;56303;52.160;-0.428;2023-02-15T12:07:46;13.80;99.90
20744;DHT22;56303;52.160;-0.428;2023-02-15T12:10:34;13.90;99.90
20744;DHT22;56303;52.160;-0.428;2023-02-15T12:13:16;14.20;99.90
20744;DHT22;56303;52.160;-0.428;2023-02-15T12:15:48;14.70;99.90
20744;DHT22;56303;52.160;-0.428;2023-02-15T12:18:38;14.70;99.90
20744;DHT22;56303;52.160;-0.428;2023-02-15T12:21:32;15.20;99.90
20744;DHT22;56303;52.160;-0.428;2023-02-15T12:24:03;15.50;99.90
20744;DHT22;56303;52.160;-0.428;2023-02-15T12:26:37;15.30;99.90
20744;DHT22;56303;52.160;-0.428;2023-02-15T12:29:15;15.80;99.90
20744;DHT22;56303;52.160;-0.428;2023-02-15T12:31:49;15.90;99.90
20744;DHT22;56303;52.160;-0.428;2023-02-15T12:34:30;14.90;99.90
20744;DHT22;56303;52.160;-0.428;2023-02-15T12:37:01;16.80;99.90
20744;DHT22;56303;52.160;-0.428;2023-02-15T12:39:30;16.10;99.90
20744;DHT22;56303;52.160;-0.428;2023-02-15T12:42:04;16.00;99.90
20744;DHT22;56303;52.160;-0.428;2023-02-15T12:44:33;16.30;99.90
20744;DHT22;56303;52.160;-0.428;2023-02-15T12:47:19;16.20;99.90
20744;DHT22;56303;52.160;-0.428;2023-02-15T12:52:37;16.30;99.90
20744;DHT22;56303;52.160;-0.428;2023-02-15T12:55:26;17.40;99.90
20744;DHT22;56303;52.160;-0.428;2023-02-15T13:00:47;17.40;99.90
20744;DHT22;56303;52.160;-0.428;2023-02-15T13:03:21;17.30;99.90
20744;DHT22;56303;52.160;-0.428;2023-02-15T13:05:55;17.40;99.90
20744;DHT22;56303;52.160;-0.428;2023-02-15T13:09:06;17.80;99.90
20744;DHT22;56303;52.160;-0.428;2023-02-15T13:11:42;18.10;99.90
20744;DHT22;56303;52.160;-0.428;2023-02-15T13:14:16;17.60;99.90
20744;DHT22;56303;52.160;-0.428;2023-02-15T13:16:46;17.70;99.90
20744;DHT22;56303;52.160;-0.428;2023-02-15T13:19:22;17.80;99.90
20744;DHT22;56303;52.160;-0.428;2023-02-15T13:21:54;18.20;99.90
20744;DHT22;56303;52.160;-0.428;2023-02-15T13:24:25;17.80;99.90
20744;DHT22;56303;52.160;-0.428;2023-02-15T13:26:57;18.20;99.90
20744;DHT22;56303;52.160;-0.428;2023-02-15T13:29:43;18.20;99.90
20744;DHT22;56303;52.160;-0.428;2023-02-15T13:34:57;17.40;99.90
20744;DHT22;56303;52.160;-0.428;2023-02-15T13:37:42;18.00;99.90
20744;DHT22;56303;52.160;-0.428;2023-02-15T13:53:35;19.00;99.90
20744;DHT22;56303;52.160;-0.428;2023-02-15T13:56:33;19.00;99.90
20744;DHT22;56303;52.160;-0.428;2023-02-15T14:05:15;17.80;99.90
20744;DHT22;56303;52.160;-0.428;2023-02-15T14:08:34;17.50;99.90
20744;DHT22;56303;52.160;-0.428;2023-02-15T14:16:00;17.70;99.90
20744;DHT22;56303;52.160;-0.428;2023-02-15T14:18:51;17.60;99.90
20744;DHT22;56303;52.160;-0.428;2023-02-15T14:21:44;18.00;99.90
20744;DHT22;56303;52.160;-0.428;2023-02-15T14:24:34;18.00;99.90
20744;DHT22;56303;52.160;-0.428;2023-02-15T14:27:24;18.50;99.90
20744;DHT22;56303;52.160;-0.428;2023-02-15T14:29:58;18.00;99.90
20744;DHT22;56303;52.160;-0.428;2023-02-15T14:32:33;18.50;99.90
20744;DHT22;56303;52.160;-0.428;2023-02-15T14:35:04;18.40;99.90
20744;DHT22;56303;52.160;-0.428;2023-02-15T14:40:57;17.90;99.90
20744;DHT22;56303;52.160;-0.428;2023-02-15T14:46:21;17.70;99.90
20744;DHT22;56303;52.160;-0.428;2023-02-15T14:48:55;17.50;99.90
20744;DHT22;56303;52.160;-0.428;2023-02-15T14:59:45;18.40;99.90
20744;DHT22;56303;52.160;-0.428;2023-02-15T15:02:20;17.70;99.90
20744;DHT22;56303;52.160;-0.428;2023-02-15T15:04:58;17.70;99.90
20744;DHT22;56303;52.160;-0.428;2023-02-15T15:07:42;17.60;99.90
20744;DHT22;56303;52.160;-0.428;2023-02-15T15:12:50;17.50;99.90
20744;DHT22;56303;52.160;-0.428;2023-02-15T15:26:48;17.50;99.90
20744;DHT22;56303;52.160;-0.428;2023-02-15T15:34:38;17.20;99.90
20744;DHT22;56303;52.160;-0.428;2023-02-15T15:40:31;16.60;99.90
20744;DHT22;56303;52.160;-0.428;2023-02-15T15:46:04;16.80;99.90
20744;DHT22;56303;52.160;-0.428;2023-02-15T15:48:35;16.90;99.90
20744;DHT22;56303;52.160;-0.428;2023-02-15T15:51:27;16.40;99.90
20744;DHT22;56303;52.160;-0.428;2023-02-15T15:53:56;16.00;99.90
20744;DHT22;56303;52.160;-0.428;2023-02-15T15:56:30;16.10;99.90
20744;DHT22;56303;52.160;-0.428;2023-02-15T15:59:01;16.40;99.90
20744;DHT22;56303;52.160;-0.428;2023-02-15T16:01:31;16.60;99.90
20744;DHT22;56303;52.160;-0.428;2023-02-15T16:04:01;16.40;99.90
20744;DHT22;56303;52.160;-0.428;2023-02-15T16:06:38;16.40;99.90
20744;DHT22;56303;52.160;-0.428;2023-02-15T16:09:27;15.90;99.90
20744;DHT22;56303;52.160;-0.428;2023-02-15T16:11:56;15.30;99.90
20744;DHT22;56303;52.160;-0.428;2023-02-15T16:14:39;15.20;99.90
20744;DHT22;56303;52.160;-0.428;2023-02-15T16:17:20;15.20;99.90
20744;DHT22;56303;52.160;-0.428;2023-02-15T16:19:49;13.30;99.90
20744;DHT22;56303;52.160;-0.428;2023-02-15T16:22:23;15.00;99.90
20744;DHT22;56303;52.160;-0.428;2023-02-15T16:27:46;14.80;99.90
20744;DHT22;56303;52.160;-0.428;2023-02-15T16:30:33;14.80;99.90
20744;DHT22;56303;52.160;-0.428;2023-02-15T16:33:04;14.70;99.90
20744;DHT22;56303;52.160;-0.428;2023-02-15T16:35:32;14.80;99.90
20744;DHT22;56303;52.160;-0.428;2023-02-15T16:38:00;14.90;99.90
20744;DHT22;56303;52.160;-0.428;2023-02-15T16:40:30;14.80;99.90
20744;DHT22;56303;52.160;-0.428;2023-02-15T16:43:04;15.00;99.90
20744;DHT22;56303;52.160;-0.428;2023-02-15T16:45:34;14.90;99.90
20744;DHT22;56303;52.160;-0.428;2023-02-15T16:48:12;15.00;99.90
20744;DHT22;56303;52.160;-0.428;2023-02-15T16:50:47;15.00;99.90
20744;DHT22;56303;52.160;-0.428;2023-02-15T16:53:22;15.10;99.90
20744;DHT22;56303;52.160;-0.428;2023-02-15T16:55:55;15.20;99.90
20744;DHT22;56303;52.160;-0.428;2023-02-15T16:58:30;15.40;99.90
20744;DHT22;56303;52.160;-0.428;2023-02-15T17:00:59;15.20;99.90
20744;DHT22;56303;52.160;-0.428;2023-02-15T17:03:28;15.10;99.90
20744;DHT22;56303;52.160;-0.428;2023-02-15T17:06:00;14.90;99.90
20744;DHT22;56303;52.160;-0.428;2023-02-15T17:08:42;14.80;99.90
20744;DHT22;56303;52.160;-0.428;2023-02-15T17:11:20;14.70;99.90
20744;DHT22;56303;52.160;-0.428;2023-02-15T17:16:41;14.70;99.90
20744;DHT22;56303;52.160;-0.428;2023-02-15T17:19:14;14.90;99.90
20744;DHT22;56303;52.160;-0.428;2023-02-15T17:21:47;15.10;99.90
20744;DHT22;56303;52.160;-0.428;2023-02-15T17:24:41;14.90;99.90
20744;DHT22;56303;52.160;-0.428;2023-02-15T17:27:21;14.90;99.90
20744;DHT22;56303;52.160;-0.428;2023-02-15T17:29:52;14.80;99.90
20744;DHT22;56303;52.160;-0.428;2023-02-15T17:32:27;14.80;99.90
20744;DHT22;56303;52.160;-0.428;2023-02-15T17:35:21;14.70;99.90
20744;DHT22;56303;52.160;-0.428;2023-02-15T17:37:49;14.90;99.90
20744;DHT22;56303;52.160;-0.428;2023-02-15T17:40:34;16.40;99.90
20744;DHT22;56303;52.160;-0.428;2023-02-15T17:43:01;14.80;99.90
20744;DHT22;56303;52.160;-0.428;2023-02-15T17:45:33;15.00;99.90
20744;DHT22;56303;52.160;-0.428;2023-02-15T17:48:05;15.20;99.90
20744;DHT22;56303;52.160;-0.428;2023-02-15T17:50:32;15.20;99.90
20744;DHT22;56303;52.160;-0.428;2023-02-15T17:53:00;15.00;99.90
20744;DHT22;56303;52.160;-0.428;2023-02-15T17:55:29;15.00;99.90
20744;DHT22;56303;52.160;-0.428;2023-02-15T17:58:10;14.80;99.90
20744;DHT22;56303;52.160;-0.428;2023-02-15T18:00:57;15.00;99.90
20744;DHT22;56303;52.160;-0.428;2023-02-15T18:03:49;15.10;99.90
20744;DHT22;56303;52.160;-0.428;2023-02-15T18:06:39;15.20;99.90
20744;DHT22;56303;52.160;-0.428;2023-02-15T18:09:25;15.10;99.90
20744;DHT22;56303;52.160;-0.428;2023-02-15T18:12:21;15.10;99.90
20744;DHT22;56303;52.160;-0.428;2023-02-15T18:14:49;15.10;99.90
20744;DHT22;56303;52.160;-0.428;2023-02-15T18:17:17;15.00;99.90
20744;DHT22;56303;52.160;-0.428;2023-02-15T18:19:45;14.80;99.90
20744;DHT22;56303;52.160;-0.428;2023-02-15T18:22:15;14.80;99.90
20744;DHT22;56303;52.160;-0.428;2023-02-15T18:24:42;14.90;99.90
20744;DHT22;56303;52.160;-0.428;2023-02-15T18:27:11;14.80;99.90
20744;DHT22;56303;52.160;-0.428;2023-02-15T18:29:38;14.60;99.90
20744;DHT22;56303;52.160;-0.428;2023-02-15T18:32:25;15.80;99.90
20744;DHT22;56303;52.160;-0.428;2023-02-15T18:34:55;14.60;99.90
20744;DHT22;56303;52.160;-0.428;2023-02-15T18:37:30;14.60;99.90
20744;DHT22;56303;52.160;-0.428;2023-02-15T18:39:59;14.40;99.90
20744;DHT22;56303;52.160;-0.428;2023-02-15T18:42:31;14.40;99.90
20744;DHT22;56303;52.160;-0.428;2023-02-15T18:45:06;14.50;99.90
20744;DHT22;56303;52.160;-0.428;2023-02-15T18:47:39;14.50;99.90
20744;DHT22;56303;52.160;-0.428;2023-02-15T18:50:07;14.50;99.90
20744;DHT22;56303;52.160;-0.428;2023-02-15T18:52:36;14.40;99.90
20744;DHT22;56303;52.160;-0.428;2023-02-15T18:55:16;14.40;99.90